Terminal Aerodrome Forecast
Issued by NWS

Home | Current Version | Previous Version | Text Only | Print | Product List | Glossary On
Versions: 1 2 3 4 5 6 7 8 9 10 11 12 13 14
000
FTUS43 KOAX 301727
TAFSNY
TAF
KSNY 301727Z 3018/3118 36015KT P6SM SKC
     FM302200 04011KT P6SM SKC
     FM310100 08006KT P6SM FEW150
     FM311000 15012KT 3SM BR OVC007=

USA.gov is the U.S. government's official web portal to all federal, state and local government web resources and services.